createdAt,value
2023-03-05T00:03:02.126Z,0.04
2023-03-05T00:05:16.561Z,0.05
2023-03-05T00:07:16.586Z,0.03
2023-03-05T00:17:07.054Z,0.04
2023-03-05T00:20:02.462Z,0.03
2023-03-05T00:25:09.319Z,0.04
2023-03-05T00:29:20.703Z,0.03
2023-03-05T00:32:07.785Z,0.04
2023-03-05T00:41:57.393Z,0.03
2023-03-05T00:44:36.339Z,0.04
2023-03-05T00:49:12.243Z,0.03
2023-03-05T00:51:09.198Z,0.04
2023-03-05T00:56:25.557Z,0.03
2023-03-05T00:58:42.262Z,0.04
2023-03-05T01:23:13.353Z,0.03
2023-03-05T01:28:38.667Z,0.04
2023-03-05T01:30:59.901Z,0.03
2023-03-05T01:33:07.303Z,0.04
2023-03-05T01:36:03.098Z,0.03
2023-03-05T01:55:11.607Z,0.04
2023-03-05T03:51:01.870Z,0.05
2023-03-05T03:53:19.064Z,0.04
2023-03-05T04:30:39.338Z,0.03
2023-03-05T04:33:21.192Z,0.04
2023-03-05T05:17:08.634Z,0.05
2023-03-05T05:21:42.645Z,0.06
2023-03-05T05:24:41.035Z,0.07
2023-03-05T05:27:25.219Z,0.09
2023-03-05T05:29:55.447Z,0.13
2023-03-05T05:32:11.664Z,0.18
2023-03-05T05:34:13.713Z,0.25
2023-03-05T05:37:04.299Z,0.41
2023-03-05T05:39:40.680Z,0.59
2023-03-05T05:42:02.938Z,0.91
2023-03-05T05:44:11.371Z,1.26
2023-03-05T05:47:07.989Z,2.01
2023-03-05T05:49:50.447Z,3.37
2023-03-05T05:52:18.756Z,4.82
2023-03-05T05:54:33.186Z,6.38
2023-03-05T05:56:33.487Z,7.57
2023-03-05T05:59:22.137Z,8.83
2023-03-05T06:01:57.190Z,11.41
2023-03-05T06:04:17.391Z,16.31
2023-03-05T06:06:23.780Z,18.47
2023-03-05T06:09:18.306Z,22.03
2023-03-05T06:11:59.048Z,25.23
2023-03-05T06:14:25.691Z,27.53
2023-03-05T06:16:38.228Z,31.67
2023-03-05T06:18:36.916Z,37.3
2023-03-05T06:21:23.650Z,49.4
2023-03-05T06:23:56.433Z,55.82
2023-03-05T06:26:15.301Z,70.38
2023-03-05T06:28:20.056Z,84.64
2023-03-05T06:31:12.965Z,103.24
2023-03-05T06:33:51.896Z,116.44
2023-03-05T06:36:16.853Z,141.16
2023-03-05T06:38:27.702Z,160.64
2023-03-05T06:40:24.651Z,163.9
2023-03-05T06:43:09.898Z,171.1
2023-03-05T06:45:40.991Z,182
2023-03-05T06:47:57.880Z,191.2
2023-03-05T06:50:00.912Z,198.3
2023-03-05T06:52:52.287Z,208
2023-03-05T06:55:29.497Z,213.9
2023-03-05T06:57:52.699Z,212.8
2023-03-05T07:00:01.487Z,227.6
2023-03-05T07:02:58.726Z,247.6
2023-03-05T07:05:42.148Z,264.6
2023-03-05T07:08:11.387Z,273.7
2023-03-05T07:10:26.503Z,258.1
2023-03-05T07:12:27.822Z,238
2023-03-05T07:15:17.311Z,227.7
2023-03-05T07:17:52.688Z,242.5
2023-03-05T07:20:13.965Z,231.6
2023-03-05T07:22:21.330Z,222.4
2023-03-05T07:25:16.827Z,286
2023-03-05T07:27:58.260Z,311.5
2023-03-05T07:30:25.810Z,343.5
2023-03-05T07:32:39.233Z,381.1
2023-03-05T07:34:38.535Z,409.7
2023-03-05T07:37:26.434Z,415.8
2023-03-05T07:40:00.093Z,373.2
2023-03-05T07:42:19.679Z,362.7
2023-03-05T07:44:25.305Z,400.1
2023-03-05T07:47:19.134Z,436.8
2023-03-05T07:49:58.919Z,456
2023-03-05T07:52:24.163Z,463.6
2023-03-05T07:54:35.912Z,470
2023-03-05T07:56:33.588Z,477.9
2023-03-05T07:59:19.466Z,480.8
2023-03-05T08:01:51.489Z,509.6
2023-03-05T08:04:09.415Z,605.6
2023-03-05T08:06:13.116Z,675.5
2023-03-05T08:09:05.308Z,719.3
2023-03-05T08:11:43.504Z,728.6
2023-03-05T08:14:07.498Z,707.2
2023-03-05T08:16:17.593Z,700.1
2023-03-05T08:19:15.908Z,742.7
2023-03-05T08:22:00.126Z,785.2
2023-03-05T08:24:30.194Z,808
2023-03-05T08:26:46.343Z,742
2023-03-05T08:28:48.413Z,714.2
2023-03-05T08:31:38.709Z,642.7
2023-03-05T08:34:15.051Z,565.9
2023-03-05T08:36:37.355Z,556
2023-03-05T08:38:45.695Z,551.8
2023-03-05T08:41:42.186Z,618.5
2023-03-05T08:44:24.228Z,758.7
2023-03-05T08:46:52.602Z,896
2023-03-05T08:49:07.039Z,996.1
2023-03-05T08:51:07.156Z,1032.9
2023-03-05T08:53:55.705Z,865.6
2023-03-05T08:56:30.116Z,824
2023-03-05T08:58:50.701Z,892.4
2023-03-05T09:00:57.140Z,995.8
2023-03-05T09:03:51.714Z,1130.8
2023-03-05T09:06:32.506Z,1144.6
2023-03-05T09:08:59.200Z,1129.9
2023-03-05T09:11:11.724Z,1036.8
2023-03-05T09:13:10.334Z,940.1
2023-03-05T09:15:57.300Z,904.3
2023-03-05T09:18:10.973Z,882.2
2023-03-05T09:20:10.570Z,885.7
2023-03-05T09:22:58.514Z,859.2
2023-03-05T09:25:32.347Z,846
2023-03-05T09:27:52.213Z,795.5
2023-03-05T09:29:57.927Z,759
2023-03-05T09:32:52.113Z,738.2
2023-03-05T09:35:31.904Z,735.3
2023-03-05T09:37:57.714Z,841.6
2023-03-05T09:40:09.662Z,879.3
2023-03-05T09:42:09.905Z,963.8
2023-03-05T09:44:53.743Z,1148.8
2023-03-05T09:47:25.779Z,1226.8
2023-03-05T09:49:43.882Z,1402.2
2023-03-05T09:51:47.849Z,1590.4
2023-03-05T09:54:40.073Z,1691
2023-03-05T09:57:18.460Z,1777
2023-03-05T09:59:42.661Z,1770
2023-03-05T10:01:52.753Z,1736
2023-03-05T10:04:51.367Z,1616.6
2023-03-05T10:07:35.831Z,1850
2023-03-05T10:10:06.182Z,1905
2023-03-05T10:12:22.334Z,2053
2023-03-05T10:14:24.654Z,2035
2023-03-05T10:17:15.099Z,2252
2023-03-05T10:19:51.553Z,2426
2023-03-05T10:22:13.906Z,2391
2023-03-05T10:24:22.202Z,2385
2023-03-05T10:27:18.472Z,2305
2023-03-05T10:30:01.101Z,2035
2023-03-05T10:32:29.671Z,1822
2023-03-05T10:34:44.100Z,1619.8
2023-03-05T10:36:44.671Z,1429.1
2023-03-05T10:39:33.451Z,1293.4
2023-03-05T10:42:08.119Z,1255.6
2023-03-05T10:44:28.695Z,1177.9
2023-03-05T10:46:35.365Z,1074.5
2023-03-05T10:49:30.278Z,926
2023-03-05T10:52:11.141Z,927
2023-03-05T10:54:38.067Z,981.4
2023-03-05T10:56:50.830Z,1077.1
2023-03-05T10:58:49.452Z,1216
2023-03-05T11:01:36.576Z,1327.3
2023-03-05T11:04:09.517Z,1157.4
2023-03-05T11:06:28.355Z,973.7
2023-03-05T11:08:33.309Z,928
2023-03-05T11:11:26.422Z,840.9
2023-03-05T11:14:05.450Z,851.2
2023-03-05T11:16:30.330Z,853.4
2023-03-05T11:18:40.945Z,854.7
2023-03-05T11:20:37.989Z,770.5
2023-03-05T11:23:22.858Z,695
2023-03-05T11:25:54.062Z,631.8
2023-03-05T11:28:12.697Z,591.2
2023-03-05T11:30:14.120Z,645.2
2023-03-05T11:33:05.604Z,837.1
2023-03-05T11:35:42.948Z,868.8
2023-03-05T11:38:06.167Z,957.7
2023-03-05T11:40:15.542Z,1008.6
2023-03-05T11:43:13.144Z,1110
2023-03-05T11:45:56.577Z,1264.3
2023-03-05T11:48:25.923Z,1342
2023-03-05T11:50:41.411Z,1411.2
2023-03-05T11:52:42.734Z,1417.6
2023-03-05T11:55:32.306Z,1397.7
2023-03-05T11:58:08.040Z,1482.2
2023-03-05T12:00:29.558Z,1644
2023-03-05T12:02:37.024Z,1797
2023-03-05T12:05:32.927Z,2044
2023-03-05T12:08:14.725Z,2233
2023-03-05T12:10:42.002Z,2344
2023-03-05T12:12:55.492Z,2368
2023-03-05T12:14:55.151Z,2445
2023-03-05T12:17:43.330Z,2684
2023-03-05T12:20:16.644Z,2744
2023-03-05T12:22:36.411Z,2725
2023-03-05T12:24:42.075Z,2626
2023-03-05T12:27:36.010Z,2542
2023-03-05T12:30:16.076Z,2160
2023-03-05T12:32:41.980Z,1997
2023-03-05T12:34:53.781Z,1966
2023-03-05T12:36:51.418Z,1950
2023-03-05T12:39:37.712Z,1842
2023-03-05T12:42:09.341Z,1758
2023-03-05T12:44:27.214Z,1744
2023-03-05T12:46:31.139Z,1670
2023-03-05T12:49:23.305Z,1672
2023-03-05T12:52:01.295Z,1894
2023-03-05T12:54:25.421Z,2096
2023-03-05T12:56:35.439Z,2112
2023-03-05T12:59:33.657Z,2097
2023-03-05T13:02:17.664Z,2114
2023-03-05T13:04:47.849Z,2167
2023-03-05T13:07:03.906Z,2154
2023-03-05T13:09:06.153Z,2139
2023-03-05T13:11:56.615Z,2089
2023-03-05T13:14:32.839Z,1927
2023-03-05T13:16:54.978Z,1774
2023-03-05T13:19:03.217Z,1669
2023-03-05T13:21:59.961Z,1599.3
2023-03-05T13:24:42.100Z,1478.4
2023-03-05T13:27:10.552Z,1393.9
2023-03-05T13:29:24.926Z,1244.8
2023-03-05T13:31:25.175Z,1150.4
2023-03-05T13:34:13.817Z,1086
2023-03-05T13:36:48.408Z,1067.2
2023-03-05T13:39:09.153Z,1186.5
2023-03-05T13:41:15.906Z,1162.2
2023-03-05T13:44:10.270Z,1317.7
2023-03-05T13:46:50.941Z,1376.6
2023-03-05T13:49:18.027Z,1272.6
2023-03-05T13:51:30.099Z,1040
2023-03-05T13:53:28.310Z,1003.5
2023-03-05T13:56:15.100Z,939.8
2023-03-05T13:58:47.927Z,1081.2
2023-03-05T14:01:06.757Z,1161.9
2023-03-05T14:03:11.380Z,1176.6
2023-03-05T14:06:04.521Z,1177.6
2023-03-05T14:08:43.502Z,1241.6
2023-03-05T14:11:08.378Z,1179.2
2023-03-05T14:13:19.350Z,1097.9
2023-03-05T14:15:16.703Z,1133.1
2023-03-05T14:18:01.220Z,1128.9
2023-03-05T14:20:32.200Z,1015.3
2023-03-05T14:22:49.304Z,944
2023-03-05T14:24:52.276Z,922.8
2023-03-05T14:27:43.486Z,875.5
2023-03-05T14:30:20.961Z,837.4
2023-03-05T14:32:44.022Z,740.8
2023-03-05T14:34:52.991Z,729.6
2023-03-05T14:37:50.477Z,681.9
2023-03-05T14:40:33.822Z,705.2
2023-03-05T14:43:03.103Z,738.2
2023-03-05T14:45:17.807Z,795.5
2023-03-05T14:47:19.055Z,769.2
2023-03-05T14:50:08.521Z,682.8
2023-03-05T14:52:43.875Z,681.6
2023-03-05T14:55:05.416Z,681.9
2023-03-05T14:57:12.738Z,707.5
2023-03-05T15:00:08.266Z,685.1
2023-03-05T15:02:49.965Z,676.1
2023-03-05T15:05:17.496Z,647.8
2023-03-05T15:07:30.882Z,596.9
2023-03-05T15:09:30.436Z,620
2023-03-05T15:12:18.261Z,572.9
2023-03-05T15:14:51.863Z,511.5
2023-03-05T15:17:11.366Z,469.9
2023-03-05T15:19:16.998Z,447.2
2023-03-05T15:22:10.780Z,455
2023-03-05T15:24:50.530Z,480.6
2023-03-05T15:27:16.377Z,476.4
2023-03-05T15:29:28.112Z,442.5
2023-03-05T15:31:25.774Z,401.6
2023-03-05T15:34:11.704Z,368.8
2023-03-05T15:36:43.203Z,359.2
2023-03-05T15:39:01.028Z,324.6
2023-03-05T15:41:04.945Z,304.2
2023-03-05T15:43:57.047Z,247.6
2023-03-05T15:46:35.063Z,210.3
2023-03-05T15:48:58.923Z,228.5
2023-03-05T15:51:08.961Z,247.4
2023-03-05T15:54:07.230Z,273.2
2023-03-05T15:56:51.375Z,282.5
2023-03-05T15:59:21.620Z,283.7
2023-03-05T16:01:38.752Z,287.8
2023-03-05T16:03:39.818Z,290.4
2023-03-05T16:06:30.310Z,251.8
2023-03-05T16:09:06.741Z,190.5
2023-03-05T16:11:29.041Z,200.7
2023-03-05T16:13:37.437Z,222.3
2023-03-05T16:16:34.014Z,206.8
2023-03-05T16:19:16.488Z,182
2023-03-05T16:21:44.809Z,152.64
2023-03-05T16:23:59.253Z,138.48
2023-03-05T16:25:59.866Z,137.48
2023-03-05T16:28:47.799Z,134.76
2023-03-05T16:31:22.563Z,128.04
2023-03-05T16:33:43.097Z,121.16
2023-03-05T16:35:49.573Z,111.32
2023-03-05T16:38:44.477Z,91.92
2023-03-05T16:41:25.258Z,83.6
2023-03-05T16:43:51.941Z,72.52
2023-03-05T16:46:04.515Z,62.6
2023-03-05T16:50:50.092Z,52.46
2023-03-05T16:53:23.008Z,44.2
2023-03-05T16:55:41.811Z,35.65
2023-03-05T16:57:46.651Z,29.72
2023-03-05T17:00:39.729Z,20.79
2023-03-05T17:03:18.854Z,17.31
2023-03-05T17:05:43.903Z,13.19
2023-03-05T17:07:55.592Z,11.21
2023-03-05T17:09:51.834Z,9.42
2023-03-05T17:12:37.282Z,7.49
2023-03-05T17:15:08.139Z,5.52
2023-03-05T17:17:25.133Z,4.32
2023-03-05T17:19:27.842Z,3.34
2023-03-05T17:22:19.123Z,2.18
2023-03-05T17:24:56.316Z,1.37
2023-03-05T17:27:19.632Z,0.95
2023-03-05T17:29:29.384Z,0.71
2023-03-05T17:32:26.161Z,0.41
2023-03-05T17:35:09.662Z,0.26
2023-03-05T17:37:39.049Z,0.19
2023-03-05T17:39:54.333Z,0.15
2023-03-05T17:41:55.664Z,0.11
2023-03-05T17:44:45.288Z,0.1
2023-03-05T17:47:20.787Z,0.09
2023-03-05T17:49:42.154Z,0.08
2023-03-05T17:54:45.379Z,0.07
2023-03-05T17:59:54.639Z,0.06
2023-03-05T18:06:55.580Z,0.05
2023-03-05T18:09:29.300Z,0.06
2023-03-05T18:26:03.202Z,0.05
2023-03-05T18:45:47.172Z,0.06
2023-03-05T18:48:45.468Z,0.05
2023-03-05T19:16:22.196Z,0.06
2023-03-05T19:18:36.434Z,0.05
2023-03-05T19:55:02.025Z,0.04
2023-03-05T19:57:21.862Z,0.05
2023-03-05T20:07:27.894Z,0.04
2023-03-05T20:11:37.930Z,0.05
2023-03-05T20:37:06.715Z,0.04
2023-03-05T20:39:37.121Z,0.05
2023-03-05T21:09:05.455Z,0.04
2023-03-05T21:11:40.327Z,0.05
2023-03-05T21:16:07.693Z,0.07
2023-03-05T21:19:02.585Z,0.06
2023-03-05T21:21:43.448Z,0.08
2023-03-05T21:24:10.520Z,0.06
2023-03-05T21:26:23.251Z,0.04
2023-03-05T21:31:08.800Z,0.05
2023-03-05T21:33:41.859Z,0.04
2023-03-05T21:36:00.815Z,0.05
2023-03-05T21:38:05.446Z,0.04
2023-03-05T21:55:27.365Z,0.05
2023-03-05T21:57:44.521Z,0.04
2023-03-05T21:59:47.579Z,0.05
2023-03-05T22:02:39.081Z,0.04
2023-03-05T22:37:48.756Z,0.03
2023-03-05T22:40:16.516Z,0.04
2023-03-05T22:44:29.805Z,0.03
2023-03-05T22:49:51.604Z,0.04
2023-03-05T22:52:11.499Z,0.03
2023-03-05T22:54:17.266Z,0.04
2023-03-05T22:57:11.295Z,0.03
2023-03-05T22:59:51.445Z,0.04
2023-03-05T23:04:29.336Z,0.03
2023-03-05T23:24:02.177Z,0.04
2023-03-05T23:26:12.341Z,0.03
2023-03-05T23:34:25.698Z,0.04
2023-03-05T23:36:41.870Z,0.03
2023-03-05T23:56:49.853Z,0.04
2023-03-05T23:59:04.380Z,0.03
